createdAt,value
2018-09-05T00:00:42.478Z,96997
2018-09-05T00:01:58.373Z,96997
2018-09-05T00:03:14.284Z,96999
2018-09-05T00:04:30.243Z,96997
2018-09-05T00:05:46.204Z,96991
2018-09-05T00:07:02.127Z,96995
2018-09-05T00:08:18.043Z,96993
2018-09-05T00:09:33.982Z,96995
2018-09-05T00:10:49.982Z,96998
2018-09-05T00:12:06.025Z,96993
2018-09-05T00:13:22.074Z,96992
2018-09-05T00:14:38.025Z,96994
2018-09-05T00:15:53.956Z,96996
2018-09-05T00:17:09.873Z,96991
2018-09-05T00:18:25.772Z,96990
2018-09-05T00:19:41.743Z,96989
2018-09-05T00:20:57.770Z,96981
2018-09-05T00:22:13.661Z,96987
2018-09-05T00:23:29.708Z,96988
2018-09-05T00:24:45.744Z,96992
2018-09-05T00:26:01.854Z,96991
2018-09-05T00:27:17.750Z,96991
2018-09-05T00:28:33.712Z,96994
2018-09-05T00:29:49.594Z,96994
2018-09-05T00:31:05.566Z,96999
2018-09-05T00:32:21.507Z,97001
2018-09-05T00:33:37.464Z,96998
2018-09-05T00:34:53.495Z,96997
2018-09-05T00:36:09.538Z,97002
2018-09-05T00:37:25.437Z,96996
2018-09-05T00:38:41.494Z,96997
2018-09-05T00:39:57.629Z,96996
2018-09-05T00:41:13.958Z,96993
2018-09-05T00:42:30.063Z,96991
2018-09-05T00:43:46.019Z,96992
2018-09-05T00:45:02.120Z,96993
2018-09-05T00:46:18.072Z,96994
2018-09-05T00:47:34.027Z,96993
2018-09-05T00:48:49.987Z,96990
2018-09-05T00:50:05.885Z,96989
2018-09-05T00:51:21.789Z,96992
2018-09-05T00:52:37.743Z,96984
2018-09-05T00:53:53.721Z,96986
2018-09-05T00:55:09.692Z,96985
2018-09-05T00:56:25.736Z,96985
2018-09-05T00:57:41.784Z,96983
2018-09-05T00:58:57.712Z,96985
2018-09-05T01:00:13.766Z,96986
2018-09-05T01:01:29.871Z,96979
2018-09-05T01:02:45.989Z,96979
2018-09-05T01:04:02.002Z,96978
2018-09-05T01:05:17.913Z,96975
2018-09-05T01:06:33.853Z,96975
2018-09-05T01:07:49.820Z,96978
2018-09-05T01:09:05.734Z,96979
2018-09-05T01:10:21.644Z,96977
2018-09-05T01:11:37.563Z,96976
2018-09-05T01:12:53.597Z,96974
2018-09-05T01:14:09.648Z,96972
2018-09-05T01:15:25.570Z,96971
2018-09-05T01:16:41.641Z,96965
2018-09-05T01:17:57.588Z,96963
2018-09-05T01:19:13.494Z,96971
2018-09-05T01:20:29.480Z,96970
2018-09-05T01:21:45.628Z,96972
2018-09-05T01:23:01.629Z,96972
2018-09-05T01:24:17.563Z,96975
2018-09-05T01:25:34.428Z,96975
2018-09-05T01:26:50.483Z,96973
2018-09-05T01:28:06.385Z,96975
2018-09-05T01:29:22.277Z,96978
2018-09-05T01:30:38.299Z,96978
2018-09-05T01:31:54.265Z,96974
2018-09-05T01:33:10.235Z,96973
2018-09-05T01:34:26.183Z,96965
2018-09-05T01:35:42.202Z,96958
2018-09-05T01:36:58.113Z,96963
2018-09-05T01:38:14.059Z,96963
2018-09-05T01:41:10.884Z,96966
2018-09-05T01:42:27.074Z,96963
2018-09-05T01:43:43.007Z,96965
2018-09-05T01:44:59.006Z,96964
2018-09-05T01:46:14.922Z,96963
2018-09-05T01:47:30.927Z,96965
2018-09-05T01:48:46.879Z,96965
2018-09-05T01:50:02.837Z,96967
2018-09-05T01:51:18.885Z,96968
2018-09-05T01:52:34.918Z,96968
2018-09-05T01:53:50.816Z,96969
2018-09-05T01:55:06.715Z,96971
2018-09-05T01:56:22.791Z,96965
2018-09-05T01:57:38.765Z,96966
2018-09-05T01:58:54.654Z,96969
2018-09-05T02:00:10.615Z,96970
2018-09-05T02:01:26.629Z,96971
2018-09-05T02:02:42.529Z,96970
2018-09-05T02:03:58.411Z,96970
2018-09-05T02:05:14.346Z,96970
2018-09-05T02:06:30.239Z,96973
2018-09-05T02:07:46.142Z,96969
2018-09-05T02:10:42.940Z,96969
2018-09-05T02:11:58.958Z,96971
2018-09-05T02:13:14.880Z,96972
2018-09-05T02:14:30.835Z,96970
2018-09-05T02:15:46.822Z,96973
2018-09-05T02:17:02.932Z,96973
2018-09-05T02:18:19.019Z,96974
2018-09-05T02:19:34.949Z,96980
2018-09-05T02:20:50.880Z,96983
2018-09-05T02:22:06.991Z,96980
2018-09-05T02:23:22.909Z,96984
2018-09-05T02:24:38.833Z,96985
2018-09-05T02:25:54.949Z,96984
2018-09-05T02:27:10.994Z,96986
2018-09-05T02:28:27.129Z,96983
2018-09-05T02:29:43.080Z,96984
2018-09-05T02:30:59.035Z,96985
2018-09-05T02:32:15.969Z,96985
2018-09-05T02:33:32.081Z,96985
2018-09-05T02:34:48.122Z,96985
2018-09-05T02:36:04.025Z,96986
2018-09-05T02:37:20.041Z,96985
2018-09-05T02:38:35.917Z,96982
2018-09-05T02:39:51.834Z,96988
2018-09-05T02:41:07.732Z,96988
2018-09-05T02:42:23.729Z,96988
2018-09-05T02:43:39.757Z,96990
2018-09-05T02:44:55.645Z,96988
2018-09-05T02:46:11.730Z,96991
2018-09-05T02:47:27.764Z,96987
2018-09-05T02:48:43.691Z,96988
2018-09-05T02:49:59.619Z,96985
2018-09-05T02:51:15.580Z,96988
2018-09-05T02:52:31.659Z,96988
2018-09-05T02:53:47.620Z,96989
2018-09-05T02:55:03.565Z,96985
2018-09-05T02:56:19.569Z,96984
2018-09-05T02:57:35.458Z,96985
2018-09-05T02:58:51.365Z,96984
2018-09-05T03:00:07.297Z,96986
2018-09-05T03:01:23.275Z,96984
2018-09-05T03:02:39.254Z,96988
2018-09-05T03:03:55.164Z,96989
2018-09-05T03:05:11.125Z,96987
2018-09-05T03:06:27.033Z,96983
2018-09-05T03:07:42.976Z,96984
2018-09-05T03:08:58.861Z,96984
2018-09-05T03:10:14.836Z,96982
2018-09-05T03:11:30.769Z,96981
2018-09-05T03:12:46.759Z,96983
2018-09-05T03:14:02.723Z,96978
2018-09-05T03:15:18.643Z,96981
2018-09-05T03:16:34.638Z,96983
2018-09-05T03:17:50.748Z,96982
2018-09-05T03:19:06.662Z,96984
2018-09-05T03:20:22.608Z,96984
2018-09-05T03:21:38.702Z,96982
2018-09-05T03:22:54.773Z,96983
2018-09-05T03:24:11.824Z,96982
2018-09-05T03:25:27.802Z,96982
2018-09-05T03:26:43.723Z,96985
2018-09-05T03:27:59.724Z,96981
2018-09-05T03:29:15.714Z,96983
2018-09-05T03:30:31.784Z,96980
2018-09-05T03:31:47.759Z,96982
2018-09-05T03:33:03.843Z,96987
2018-09-05T03:34:19.867Z,96990
2018-09-05T03:35:35.773Z,96987
2018-09-05T03:36:51.689Z,96986
2018-09-05T03:38:07.588Z,96991
2018-09-05T03:39:23.521Z,96988
2018-09-05T03:40:39.454Z,96993
2018-09-05T03:41:55.363Z,96990
2018-09-05T03:43:11.334Z,96998
2018-09-05T03:44:27.248Z,97000
2018-09-05T03:45:43.266Z,96992
2018-09-05T03:46:59.209Z,96986
2018-09-05T03:48:15.133Z,96992
2018-09-05T03:49:31.173Z,96989
2018-09-05T03:50:47.104Z,96989
2018-09-05T03:52:03.145Z,96990
2018-09-05T03:53:19.276Z,96995
2018-09-05T03:54:35.174Z,96997
2018-09-05T03:57:31.920Z,96997
2018-09-05T03:58:47.908Z,97002
2018-09-05T04:00:03.813Z,97000
2018-09-05T04:01:19.772Z,97003
2018-09-05T04:02:36.072Z,96998
2018-09-05T04:03:51.999Z,97002
2018-09-05T04:05:08.282Z,97007
2018-09-05T04:06:24.199Z,97007
2018-09-05T04:07:40.185Z,97009
2018-09-05T04:08:56.288Z,97007
2018-09-05T04:10:12.264Z,97010
2018-09-05T04:13:09.990Z,97009
2018-09-05T04:14:26.022Z,97010
2018-09-05T04:15:41.937Z,97012
2018-09-05T04:16:57.860Z,97010
2018-09-05T04:18:13.952Z,97012
2018-09-05T04:19:29.845Z,97006
2018-09-05T04:20:45.829Z,97003
2018-09-05T04:22:01.819Z,97001
2018-09-05T04:23:17.672Z,97004
2018-09-05T04:24:33.598Z,97002
2018-09-05T04:25:49.589Z,97002
2018-09-05T04:27:05.864Z,96998
2018-09-05T04:28:21.860Z,96999
2018-09-05T04:29:37.973Z,97001
2018-09-05T04:30:53.924Z,97002
2018-09-05T04:33:50.511Z,97005
2018-09-05T04:35:06.549Z,97003
2018-09-05T04:36:22.494Z,97004
2018-09-05T04:37:38.443Z,97007
2018-09-05T04:38:54.523Z,97005
2018-09-05T04:40:10.549Z,97006
2018-09-05T04:41:26.478Z,97008
2018-09-05T04:42:42.493Z,97007
2018-09-05T04:43:58.407Z,97006
2018-09-05T04:45:14.330Z,97010
2018-09-05T04:46:30.263Z,97011
2018-09-05T04:47:46.273Z,97017
2018-09-05T04:49:02.221Z,97016
2018-09-05T04:50:18.293Z,97016
2018-09-05T04:51:34.326Z,97018
2018-09-05T04:52:50.160Z,97018
2018-09-05T04:54:06.058Z,97022
2018-09-05T04:55:22.002Z,97020
2018-09-05T04:56:37.939Z,97022
2018-09-05T04:57:53.975Z,97020
2018-09-05T04:59:09.989Z,97022
2018-09-05T05:00:25.918Z,97024
2018-09-05T05:01:41.898Z,97024
2018-09-05T05:02:57.886Z,97025
2018-09-05T05:04:13.783Z,97028
2018-09-05T05:05:29.784Z,97029
2018-09-05T05:06:45.772Z,97030
2018-09-05T05:09:42.544Z,97029
2018-09-05T05:10:58.553Z,97028
2018-09-05T05:12:14.638Z,97028
2018-09-05T05:13:30.614Z,97027
2018-09-05T05:14:46.506Z,97030
2018-09-05T05:16:02.428Z,97031
2018-09-05T05:17:18.422Z,97032
2018-09-05T05:18:34.427Z,97034
2018-09-05T05:19:50.431Z,97037
2018-09-05T05:21:06.327Z,97039
2018-09-05T05:22:22.366Z,97037
2018-09-05T05:23:38.417Z,97039
2018-09-05T05:24:54.279Z,97044
2018-09-05T05:29:06.872Z,97046
2018-09-05T05:30:22.865Z,97046
2018-09-05T05:31:38.985Z,97049
2018-09-05T05:32:54.981Z,97049
2018-09-05T05:34:10.853Z,97048
2018-09-05T05:35:26.757Z,97047
2018-09-05T05:36:42.671Z,97046
2018-09-05T05:37:58.632Z,97045
2018-09-05T05:39:14.569Z,97049
2018-09-05T05:40:30.469Z,97045
2018-09-05T05:41:46.443Z,97043
2018-09-05T05:43:02.403Z,97042
2018-09-05T05:44:18.400Z,97045
2018-09-05T05:45:34.314Z,97047
2018-09-05T05:46:50.305Z,97046
2018-09-05T05:48:06.431Z,97048
2018-09-05T05:49:22.380Z,97047
2018-09-05T05:52:19.216Z,97048
2018-09-05T05:53:35.149Z,97050
2018-09-05T05:54:51.165Z,97048
2018-09-05T05:56:07.072Z,97053
2018-09-05T05:57:22.978Z,97052
2018-09-05T05:58:38.967Z,97045
2018-09-05T05:59:54.916Z,97047
2018-09-05T06:01:11.033Z,97050
2018-09-05T06:02:26.827Z,97053
2018-09-05T06:03:42.724Z,97048
2018-09-05T06:04:58.760Z,97049
2018-09-05T06:06:14.858Z,97047
2018-09-05T06:07:30.840Z,97046
2018-09-05T06:08:46.962Z,97048
2018-09-05T06:10:02.916Z,97044
2018-09-05T06:11:18.817Z,97046
2018-09-05T06:12:34.809Z,97048
2018-09-05T06:13:50.860Z,97053
2018-09-05T06:15:06.862Z,97052
2018-09-05T06:16:22.767Z,97050
2018-09-05T06:17:38.795Z,97053
2018-09-05T06:18:54.699Z,97050
2018-09-05T06:20:10.583Z,97048
2018-09-05T06:21:26.472Z,97052
2018-09-05T06:22:42.406Z,97056
2018-09-05T06:23:58.370Z,97055
2018-09-05T06:25:14.230Z,97052
2018-09-05T06:26:30.151Z,97059
2018-09-05T06:27:46.219Z,97060
2018-09-05T06:29:02.108Z,97060
2018-09-05T06:30:18.240Z,97061
2018-09-05T06:31:34.125Z,97058
2018-09-05T06:32:50.049Z,97062
2018-09-05T06:34:06.018Z,97059
2018-09-05T06:35:21.958Z,97063
2018-09-05T06:36:37.942Z,97064
2018-09-05T06:37:53.888Z,97065
2018-09-05T06:39:09.956Z,97060
2018-09-05T06:40:25.856Z,97062
2018-09-05T06:41:41.814Z,97064
2018-09-05T06:42:57.742Z,97064
2018-09-05T06:44:13.707Z,97068
2018-09-05T06:45:29.834Z,97064
2018-09-05T06:46:45.657Z,97069
2018-09-05T06:48:01.553Z,97070
2018-09-05T06:49:17.535Z,97069
2018-09-05T06:50:34.490Z,97072
2018-09-05T06:51:50.413Z,97074
2018-09-05T06:53:06.546Z,97075
2018-09-05T06:54:22.564Z,97074
2018-09-05T06:55:38.494Z,97077
2018-09-05T06:56:54.413Z,97077
2018-09-05T06:58:10.370Z,97084
2018-09-05T06:59:26.252Z,97080
2018-09-05T07:00:42.152Z,97085
2018-09-05T07:01:58.073Z,97089
2018-09-05T07:03:13.984Z,97090
2018-09-05T07:04:29.928Z,97091
2018-09-05T07:05:45.941Z,97089
2018-09-05T07:07:02.069Z,97087
2018-09-05T07:08:17.923Z,97088
2018-09-05T07:09:33.886Z,97090
2018-09-05T07:10:50.036Z,97083
2018-09-05T07:12:06.135Z,97088
2018-09-05T07:13:22.163Z,97079
2018-09-05T07:14:38.396Z,97083
2018-09-05T07:15:54.273Z,97082
2018-09-05T07:17:10.271Z,97083
2018-09-05T07:18:26.227Z,97081
2018-09-05T07:19:42.164Z,97080
2018-09-05T07:21:05.690Z,97077
2018-09-05T07:22:15.075Z,97074
2018-09-05T07:23:31.054Z,97072
2018-09-05T07:24:46.965Z,97071
2018-09-05T07:26:02.874Z,97070
2018-09-05T07:27:18.895Z,97069
2018-09-05T07:28:34.981Z,97070
2018-09-05T07:29:50.923Z,97074
2018-09-05T07:31:06.973Z,97068
2018-09-05T07:32:23.024Z,97069
2018-09-05T07:33:38.965Z,97072
2018-09-05T07:34:54.922Z,97070
2018-09-05T07:36:10.869Z,97070
2018-09-05T07:37:26.844Z,97070
2018-09-05T07:38:42.851Z,97070
2018-09-05T07:39:58.743Z,97071
2018-09-05T07:41:14.666Z,97072
2018-09-05T07:42:30.658Z,97076
2018-09-05T07:43:46.604Z,97076
2018-09-05T07:45:02.656Z,97078
2018-09-05T07:46:18.700Z,97079
2018-09-05T07:47:34.622Z,97078
2018-09-05T07:48:50.579Z,97077
2018-09-05T07:50:06.552Z,97079
2018-09-05T07:51:22.665Z,97080
2018-09-05T07:52:38.592Z,97080
2018-09-05T07:53:54.530Z,97082
2018-09-05T07:55:10.526Z,97080
2018-09-05T07:56:26.540Z,97082
2018-09-05T07:57:42.591Z,97085
2018-09-05T07:58:58.495Z,97081
2018-09-05T08:00:14.506Z,97080
2018-09-05T08:01:30.487Z,97083
2018-09-05T08:02:46.455Z,97080
2018-09-05T08:04:02.346Z,97082
2018-09-05T08:05:18.496Z,97079
2018-09-05T08:06:34.490Z,97082
2018-09-05T08:07:50.597Z,97089
2018-09-05T08:09:06.494Z,97088
2018-09-05T08:10:22.512Z,97092
2018-09-05T08:11:38.614Z,97093
2018-09-05T08:12:54.452Z,97095
2018-09-05T08:14:10.424Z,97090
2018-09-05T08:15:26.423Z,97092
2018-09-05T08:16:42.478Z,97093
2018-09-05T08:17:58.513Z,97091
2018-09-05T08:19:14.448Z,97093
2018-09-05T08:20:30.487Z,97094
2018-09-05T08:21:46.494Z,97094
2018-09-05T08:23:02.439Z,97092
2018-09-05T08:24:18.465Z,97085
2018-09-05T08:25:34.361Z,97088
2018-09-05T08:26:50.395Z,97094
2018-09-05T08:28:06.472Z,97088
2018-09-05T08:29:22.695Z,97091
2018-09-05T08:30:38.592Z,97084
2018-09-05T08:31:54.657Z,97085
2018-09-05T08:33:10.608Z,97077
2018-09-05T08:34:26.582Z,97079
2018-09-05T08:35:42.791Z,97083
2018-09-05T08:36:58.977Z,97085
2018-09-05T08:38:14.471Z,97081
2018-09-05T08:39:30.405Z,97079
2018-09-05T08:40:46.480Z,97081
2018-09-05T08:42:02.516Z,97080
2018-09-05T08:43:18.488Z,97085
2018-09-05T08:44:34.529Z,97084
2018-09-05T08:45:50.562Z,97083
2018-09-05T08:47:06.508Z,97080
2018-09-05T08:48:22.735Z,97078
2018-09-05T08:49:38.641Z,97079
2018-09-05T08:50:54.611Z,97078
2018-09-05T08:52:10.570Z,97083
2018-09-05T08:53:26.889Z,97083
2018-09-05T08:54:42.926Z,97081
2018-09-05T08:55:58.853Z,97081
2018-09-05T08:57:14.802Z,97084
2018-09-05T08:58:30.745Z,97080
2018-09-05T08:59:46.827Z,97082
2018-09-05T09:01:02.764Z,97083
2018-09-05T09:02:18.915Z,97079
2018-09-05T09:03:34.869Z,97081
2018-09-05T09:04:50.966Z,97082
2018-09-05T09:06:07.021Z,97078
2018-09-05T09:07:22.983Z,97079
2018-09-05T09:08:38.954Z,97076
2018-09-05T09:09:54.923Z,97074
2018-09-05T09:11:10.941Z,97072
2018-09-05T09:12:26.989Z,97069
2018-09-05T09:13:43.009Z,97069
2018-09-05T09:14:59.007Z,97073
2018-09-05T09:16:15.172Z,97073
2018-09-05T09:17:31.154Z,97069
2018-09-05T09:18:47.093Z,97070
2018-09-05T09:20:03.014Z,97068
2018-09-05T09:21:20.177Z,97066
2018-09-05T09:22:36.103Z,97066
2018-09-05T09:23:52.061Z,97064
2018-09-05T09:25:08.108Z,97063
2018-09-05T09:26:24.104Z,97058
2018-09-05T09:27:40.235Z,97058
2018-09-05T09:28:56.244Z,97055
2018-09-05T09:30:12.165Z,97056
2018-09-05T09:31:28.150Z,97054
2018-09-05T09:32:44.089Z,97056
2018-09-05T09:34:00.048Z,97052
2018-09-05T09:35:16.088Z,97048
2018-09-05T09:36:32.047Z,97050
2018-09-05T09:37:48.154Z,97048
2018-09-05T09:39:04.127Z,97052
2018-09-05T09:40:20.111Z,97050
2018-09-05T09:41:36.040Z,97049
2018-09-05T09:42:52.046Z,97047
2018-09-05T09:44:08.276Z,97053
2018-09-05T09:45:24.301Z,97049
2018-09-05T09:46:40.370Z,97051
2018-09-05T09:47:56.293Z,97045
2018-09-05T09:49:12.418Z,97043
2018-09-05T09:50:28.469Z,97042
2018-09-05T09:51:44.486Z,97041
2018-09-05T09:53:00.484Z,97037
2018-09-05T09:54:16.503Z,97036
2018-09-05T09:55:33.177Z,97033
2018-09-05T09:58:41.655Z,97030
2018-09-05T09:59:57.607Z,97029
2018-09-05T10:01:13.551Z,97023
2018-09-05T10:02:29.437Z,97026
2018-09-05T10:03:45.547Z,97024
2018-09-05T10:05:01.264Z,97021
2018-09-05T10:06:17.208Z,97026
2018-09-05T10:07:33.104Z,97023
2018-09-05T10:08:49.790Z,97027
2018-09-05T10:10:05.914Z,97023
2018-09-05T10:11:21.716Z,97025
2018-09-05T10:12:37.705Z,97025
2018-09-05T10:13:53.635Z,97025
2018-09-05T10:15:09.635Z,97023
2018-09-05T10:16:26.676Z,97022
2018-09-05T10:17:43.730Z,97018
2018-09-05T10:18:59.806Z,97019
2018-09-05T10:20:15.715Z,97019
2018-09-05T10:21:31.827Z,97019
2018-09-05T10:22:47.782Z,97016
2018-09-05T10:24:03.723Z,97019
2018-09-05T10:25:19.952Z,97014
2018-09-05T10:26:35.864Z,97017
2018-09-05T10:27:51.917Z,97016
2018-09-05T10:29:07.935Z,97011
2018-09-05T10:30:23.904Z,97010
2018-09-05T10:31:39.881Z,97009
2018-09-05T10:32:55.752Z,97010
2018-09-05T10:34:11.682Z,97013
2018-09-05T10:35:27.648Z,97014
2018-09-05T10:36:43.721Z,97007
2018-09-05T10:37:59.762Z,97007
2018-09-05T10:39:15.705Z,97008
2018-09-05T10:40:31.655Z,97008
2018-09-05T10:41:47.642Z,97008
2018-09-05T10:43:03.755Z,97010
2018-09-05T10:44:19.837Z,97013
2018-09-05T10:45:35.737Z,97013
2018-09-05T10:46:51.739Z,97007
2018-09-05T10:48:07.733Z,97007
2018-09-05T10:49:23.719Z,97004
2018-09-05T10:50:39.697Z,97001
2018-09-05T10:51:55.838Z,97001
2018-09-05T10:53:11.721Z,97005
2018-09-05T10:54:27.663Z,97006
2018-09-05T10:55:43.555Z,97002
2018-09-05T10:56:59.491Z,96999
2018-09-05T10:58:16.452Z,96997
2018-09-05T10:59:32.395Z,96999
2018-09-05T11:00:48.318Z,97002
2018-09-05T11:02:04.324Z,97008
2018-09-05T11:03:20.393Z,97008
2018-09-05T11:04:36.309Z,97005
2018-09-05T11:05:52.245Z,97006
2018-09-05T11:07:08.199Z,96997
2018-09-05T11:08:24.152Z,97002
2018-09-05T11:09:40.112Z,96998
2018-09-05T11:10:57.369Z,96997
2018-09-05T11:12:13.308Z,96999
2018-09-05T11:13:29.341Z,96998
2018-09-05T11:14:45.460Z,97002
2018-09-05T11:16:01.471Z,97002
2018-09-05T11:17:17.429Z,96998
2018-09-05T11:18:33.582Z,96997
2018-09-05T11:19:49.674Z,96997
2018-09-05T11:21:05.768Z,96994
2018-09-05T11:22:21.771Z,96996
2018-09-05T11:23:37.710Z,96992
2018-09-05T11:24:54.631Z,96991
2018-09-05T11:26:10.707Z,96993
2018-09-05T11:27:26.705Z,96991
2018-09-05T11:28:42.618Z,96986
2018-09-05T11:29:58.715Z,96983
2018-09-05T11:31:14.648Z,96979
2018-09-05T11:32:30.605Z,96983
2018-09-05T11:33:46.527Z,96979
2018-09-05T11:35:02.549Z,96980
2018-09-05T11:36:18.486Z,96973
2018-09-05T11:37:34.444Z,96974
2018-09-05T11:38:50.379Z,96975
2018-09-05T11:40:06.347Z,96974
2018-09-05T11:41:22.302Z,96973
2018-09-05T11:42:38.269Z,96970
2018-09-05T11:43:54.347Z,96968
2018-09-05T11:45:10.374Z,96969
2018-09-05T11:46:26.370Z,96966
2018-09-05T11:47:42.359Z,96968
2018-09-05T11:48:58.349Z,96962
2018-09-05T11:50:14.401Z,96959
2018-09-05T11:51:30.348Z,96963
2018-09-05T11:52:46.276Z,96961
2018-09-05T11:54:02.206Z,96958
2018-09-05T11:55:18.228Z,96964
2018-09-05T11:56:34.265Z,96957
2018-09-05T11:57:50.225Z,96957
2018-09-05T11:59:06.265Z,96956
2018-09-05T12:00:22.229Z,96958
2018-09-05T12:01:38.164Z,96951
2018-09-05T12:02:54.067Z,96955
2018-09-05T12:04:10.013Z,96948
2018-09-05T12:05:25.938Z,96945
2018-09-05T12:06:41.855Z,96947
2018-09-05T12:07:57.913Z,96946
2018-09-05T12:09:13.876Z,96948
2018-09-05T12:10:29.858Z,96941
2018-09-05T12:11:45.932Z,96939
2018-09-05T12:13:01.959Z,96937
2018-09-05T12:14:17.988Z,96933
2018-09-05T12:15:34.019Z,96937
2018-09-05T12:16:49.954Z,96937
2018-09-05T12:18:05.915Z,96936
2018-09-05T12:19:21.932Z,96934
2018-09-05T12:20:37.905Z,96936
2018-09-05T12:21:53.841Z,96937
2018-09-05T12:23:09.843Z,96935
2018-09-05T12:24:25.748Z,96939
2018-09-05T12:25:41.627Z,96938
2018-09-05T12:26:57.605Z,96933
2018-09-05T12:28:13.728Z,96933
2018-09-05T12:29:29.766Z,96932
2018-09-05T12:30:45.717Z,96931
2018-09-05T12:32:01.671Z,96928
2018-09-05T12:33:17.733Z,96926
2018-09-05T12:34:33.643Z,96925
2018-09-05T12:35:49.565Z,96926
2018-09-05T12:37:05.648Z,96921
2018-09-05T12:38:21.761Z,96918
2018-09-05T12:39:37.614Z,96918
2018-09-05T12:40:53.567Z,96918
2018-09-05T12:42:09.549Z,96916
2018-09-05T12:43:25.583Z,96915
2018-09-05T12:44:41.518Z,96913
2018-09-05T12:45:57.418Z,96913
2018-09-05T12:47:13.455Z,96910
2018-09-05T12:48:29.365Z,96912
2018-09-05T12:49:45.481Z,96906
2018-09-05T12:51:01.432Z,96910
2018-09-05T12:52:17.375Z,96909
2018-09-05T12:53:33.279Z,96911
2018-09-05T12:54:49.192Z,96911
2018-09-05T12:56:05.158Z,96912
2018-09-05T12:57:21.086Z,96905
2018-09-05T12:58:37.213Z,96908
2018-09-05T12:59:53.178Z,96908
2018-09-05T13:01:09.116Z,96906
2018-09-05T13:02:25.219Z,96904
2018-09-05T13:03:41.137Z,96906
2018-09-05T13:04:57.091Z,96905
2018-09-05T13:06:12.975Z,96902
2018-09-05T13:07:29.035Z,96900
2018-09-05T13:08:44.955Z,96901
2018-09-05T13:10:00.968Z,96903
2018-09-05T13:11:17.044Z,96903
2018-09-05T13:12:32.974Z,96902
2018-09-05T13:13:48.873Z,96899
2018-09-05T13:15:04.851Z,96903
2018-09-05T13:16:20.803Z,96897
2018-09-05T13:17:36.735Z,96897
2018-09-05T13:18:52.746Z,96893
2018-09-05T13:20:08.696Z,96894
2018-09-05T13:21:24.655Z,96893
2018-09-05T13:22:40.634Z,96889
2018-09-05T13:23:56.722Z,96889
2018-09-05T13:25:12.782Z,96883
2018-09-05T13:26:28.749Z,96881
2018-09-05T13:27:44.659Z,96878
2018-09-05T13:29:00.586Z,96880
2018-09-05T13:30:16.556Z,96880
2018-09-05T13:31:32.583Z,96880
2018-09-05T13:32:48.545Z,96881
2018-09-05T13:34:04.563Z,96877
2018-09-05T13:35:20.589Z,96877
2018-09-05T13:36:36.511Z,96878
2018-09-05T13:37:52.429Z,96873
2018-09-05T13:39:08.407Z,96873
2018-09-05T13:40:24.424Z,96875
2018-09-05T13:41:40.508Z,96878
2018-09-05T13:42:56.468Z,96877
2018-09-05T13:44:12.477Z,96874
2018-09-05T13:45:28.508Z,96877
2018-09-05T13:46:44.509Z,96876
2018-09-05T13:48:00.493Z,96876
2018-09-05T13:49:16.424Z,96876
2018-09-05T13:50:32.544Z,96875
2018-09-05T13:51:48.577Z,96876
2018-09-05T13:53:04.467Z,96876
2018-09-05T13:54:20.409Z,96874
2018-09-05T13:55:36.464Z,96870
2018-09-05T13:56:52.485Z,96870
2018-09-05T13:58:08.446Z,96867
2018-09-05T13:59:24.423Z,96869
2018-09-05T14:00:40.372Z,96868
2018-09-05T14:01:56.358Z,96865
2018-09-05T14:03:12.351Z,96867
2018-09-05T14:04:28.512Z,96867
2018-09-05T14:05:44.451Z,96868
2018-09-05T14:07:00.476Z,96865
2018-09-05T14:08:16.424Z,96862
2018-09-05T14:09:32.463Z,96864
2018-09-05T14:10:48.486Z,96866
2018-09-05T14:12:04.578Z,96863
2018-09-05T14:13:20.579Z,96864
2018-09-05T14:14:36.533Z,96866
2018-09-05T14:15:52.510Z,96862
2018-09-05T14:17:08.583Z,96865
2018-09-05T14:18:24.806Z,96859
2018-09-05T14:19:41.801Z,96858
2018-09-05T14:20:57.772Z,96858
2018-09-05T14:22:13.695Z,96855
2018-09-05T14:23:29.726Z,96855
2018-09-05T14:24:45.785Z,96858
2018-09-05T14:26:01.902Z,96856
2018-09-05T14:27:17.864Z,96854
2018-09-05T14:28:33.816Z,96854
2018-09-05T14:29:49.755Z,96860
2018-09-05T14:31:05.731Z,96856
2018-09-05T14:32:21.716Z,96853
2018-09-05T14:33:37.720Z,96852
2018-09-05T14:34:53.719Z,96851
2018-09-05T14:36:09.689Z,96846
2018-09-05T14:37:25.726Z,96847
2018-09-05T14:38:41.668Z,96844
2018-09-05T14:39:57.705Z,96842
2018-09-05T14:41:13.675Z,96843
2018-09-05T14:42:29.582Z,96840
2018-09-05T14:43:45.717Z,96835
2018-09-05T14:45:01.711Z,96837
2018-09-05T14:46:17.867Z,96835
2018-09-05T14:47:33.890Z,96832
2018-09-05T14:48:49.907Z,96830
2018-09-05T14:50:05.873Z,96831
2018-09-05T14:51:21.837Z,96830
2018-09-05T14:52:37.928Z,96829
2018-09-05T14:53:53.912Z,96830
2018-09-05T14:55:09.839Z,96825
2018-09-05T14:56:25.822Z,96826
2018-09-05T15:00:38.361Z,96822
2018-09-05T15:01:54.517Z,96817
2018-09-05T15:03:10.586Z,96821
2018-09-05T15:04:26.868Z,96817
2018-09-05T15:05:42.860Z,96812
2018-09-05T15:06:58.900Z,96814
2018-09-05T15:08:14.842Z,96813
2018-09-05T15:09:30.886Z,96820
2018-09-05T15:10:46.848Z,96819
2018-09-05T15:12:02.809Z,96818
2018-09-05T15:13:18.755Z,96814
2018-09-05T15:14:34.769Z,96812
2018-09-05T15:15:50.801Z,96819
2018-09-05T15:17:06.872Z,96823
2018-09-05T15:18:24.073Z,96824
2018-09-05T15:19:40.184Z,96829
2018-09-05T15:20:56.177Z,96839
2018-09-05T15:22:12.408Z,96843
2018-09-05T15:23:28.558Z,96850
2018-09-05T15:26:25.104Z,96845
2018-09-05T15:27:41.068Z,96833
2018-09-05T15:28:56.972Z,96804
2018-09-05T15:30:12.980Z,96796
2018-09-05T15:31:28.969Z,96797
2018-09-05T15:32:44.966Z,96795
2018-09-05T15:34:00.969Z,96793
2018-09-05T15:35:16.953Z,96793
2018-09-05T15:36:33.055Z,96789
2018-09-05T15:37:49.034Z,96788
2018-09-05T15:39:05.054Z,96789
2018-09-05T15:40:20.969Z,96788
2018-09-05T15:41:37.062Z,96788
2018-09-05T15:42:52.995Z,96786
2018-09-05T15:44:08.992Z,96786
2018-09-05T15:45:25.043Z,96781
2018-09-05T15:46:41.022Z,96783
2018-09-05T15:47:56.958Z,96785
2018-09-05T15:49:12.958Z,96787
2018-09-05T15:50:28.994Z,96785
2018-09-05T15:51:45.093Z,96785
2018-09-05T15:53:01.159Z,96782
2018-09-05T15:54:17.125Z,96784
2018-09-05T15:55:33.890Z,96781
2018-09-05T15:56:50.140Z,96781
2018-09-05T15:58:06.115Z,96789
2018-09-05T15:59:22.132Z,96783
2018-09-05T16:00:38.109Z,96781
2018-09-05T16:01:54.200Z,96781
2018-09-05T16:03:10.165Z,96783
2018-09-05T16:04:26.133Z,96785
2018-09-05T16:05:42.127Z,96781
2018-09-05T16:06:58.138Z,96781
2018-09-05T16:08:14.511Z,96779
2018-09-05T16:09:31.065Z,96777
2018-09-05T16:10:47.090Z,96782
2018-09-05T16:12:03.144Z,96781
2018-09-05T16:13:19.203Z,96780
2018-09-05T16:14:35.166Z,96785
2018-09-05T16:15:51.283Z,96785
2018-09-05T16:17:07.307Z,96780
2018-09-05T16:18:23.257Z,96781
2018-09-05T16:19:39.287Z,96781
2018-09-05T16:20:55.463Z,96783
2018-09-05T16:22:11.505Z,96782
2018-09-05T16:23:28.424Z,96778
2018-09-05T16:24:44.424Z,96781
2018-09-05T16:26:00.532Z,96779
2018-09-05T16:27:16.657Z,96780
2018-09-05T16:28:32.734Z,96780
2018-09-05T16:29:49.680Z,96780
2018-09-05T16:31:05.713Z,96778
2018-09-05T16:32:21.819Z,96777
2018-09-05T16:33:37.811Z,96777
2018-09-05T16:34:53.785Z,96784
2018-09-05T16:36:09.848Z,96784
2018-09-05T16:37:25.885Z,96786
2018-09-05T16:38:41.944Z,96786
2018-09-05T16:39:57.980Z,96788